St. Louis Express — WDD3825 — position and weather

sailwx.info

Track history (hours):
 
Tides and Currents Weather Stations Pressure Air Temp Water Temp Dewpoint Dewpoint Depression Visibility Wind Speed Wind Dir Waves Ship Positions

St. Louis Express

More information available from US FCC via Universal Licensing System.

Last reported at 2014-Jul-31 06:00 UTC. Time now 2014-Jul-31 09:31 UTC.
Position N 47°12' W 014°36'.

Type: Ship (hazmat cat D). MMSI: 367136680.

Wind from 300 at 14 knots

Waves 0.5 meters (2 feet), 6 second period

Barometer 1020.0 mb
Air temperature 19.0 ° C
Visibility: greater than 10.8 NM
Dewpoint 15.7 ° C
Water temperature 21.4 ° C

Date/timePositionNaut miles runAvg speedWind from/ knotsBaromVisibWave heightAir tempDewpointWater temp
2014-Jul-31 06:00N 47°12' W 014°36'7719.2 300 / 141020.010.8 0.519.015.721.4
2014-Jul-31 02:00N 47°36' W 012°48'36319.1 310 / 101020.910.8 2.018.012.720.7
2014-Jul-30 07:00N 49°42' W 004°12'3317.8 050 / 81018.310.8 0.518.515.120.2
2014-Jul-30 05:07N 49°55' W 003°24'1519.7
2014-Jul-30 04:22N 49°57' W 003°02'4021.6
2014-Jul-30 02:32N 50°13' W 002°05'2121.3
2014-Jul-30 01:33N 50°21' W 001°35'2019.8
2014-Jul-30 00:33N 50°29' W 001°07'1414.1
2014-Jul-29 23:33N 50°43' W 001°00'1212.3
2014-Jul-29 22:33N 50°49' W 001°17'8 8.4
2014-Jul-29 21:33N 50°54' W 001°27'0 0.1
2014-Jul-29 20:30N 50°54' W 001°27'0 0.0
2014-Jul-29 19:29N 50°54' W 001°27'0 0.0
2014-Jul-29 18:32N 50°54' W 001°27'0 0.0
2014-Jul-29 17:32N 50°54' W 001°27'0 0.0
2014-Jul-29 16:32N 50°54' W 001°27'0 0.0
2014-Jul-29 15:32N 50°54' W 001°27'0 0.0
2014-Jul-29 14:32N 50°54' W 001°27'0 0.0
2014-Jul-29 13:32N 50°54' W 001°27'0 0.0
2014-Jul-29 12:29N 50°54' W 001°27'0 0.0
2014-Jul-29 11:29N 50°54' W 001°27'0 0.0
2014-Jul-29 10:32N 50°54' W 001°27'0 0.0
2014-Jul-29 09:32N 50°54' W 001°27'0 0.0
2014-Jul-29 08:32N 50°54' W 001°27'0 0.0
2014-Jul-29 07:33N 50°54' W 001°27'3 3.1
2014-Jul-29 06:34N 50°53' W 001°23'9 8.6
2014-Jul-29 05:34N 50°46' W 001°14'1413.6
2014-Jul-29 04:33N 50°38' W 000°56'5 4.5
2014-Jul-29 03:33N 50°36' W 000°51'1818.3
2014-Jul-29 02:34N 50°35' W 000°22'1918.8
2014-Jul-29 01:34N 50°32' E 000°07'712.5
2014-Jul-29 01:00N 50°30' E 000°18'1330.2 350 / 281014.0 5.4 4.017.014.418.9
2014-Jul-29 00:33N 50°37' E 000°36'1817.9
2014-Jul-28 23:33N 50°48' E 000°58'1818.1
2014-Jul-28 22:33N 50°58' E 001°22'2120.8
2014-Jul-28 21:33N 51°13' E 001°45'2221.5
2014-Jul-28 20:33N 51°31' E 002°02'4718.4
2014-Jul-28 18:00N 52°06' E 002°54'9719.5 050 / 191015.0 5.4 0.521.017.820.0
2014-Jul-28 13:00N 53°24' E 004°30'920.0 040 / 161015.510.8 2.022.518.621.4
2014-Jul-28 12:32N 53°29' E 004°43'1018.7
2014-Jul-28 12:00N 53°30' E 005°00'1024.0 060 / 161015.510.8 2.022.516.824.8
2014-Jul-28 11:33N 53°36' E 005°14'382675.6
2014-Jul-28 11:00N 53°36' W 005°30'400919.9 050 / 91015.310.8 2.023.016.521.4
2014-Jul-28 10:33N 53°43' E 005°44'1818.3
2014-Jul-28 09:33N 53°49' E 006°14'4517.6
2014-Jul-28 07:00N 53°54' E 007°30'817.8 150 / 51016.010.8 0.522.017.221.8
2014-Jul-28 06:33N 53°57' E 007°42'1514.6
2014-Jul-28 05:33N 53°50' E 008°04'1616.5
2014-Jul-28 04:33N 53°39' E 008°25'6 5.3
2014-Jul-28 03:31N 53°35' E 008°32'0 0.0
2014-Jul-28 02:31N 53°35' E 008°32'0 0.0
2014-Jul-28 01:31N 53°35' E 008°32'0 0.0
2014-Jul-28 00:31N 53°35' E 008°32'0 0.0
2014-Jul-27 23:31N 53°35' E 008°32'0 0.0
2014-Jul-27 22:31N 53°35' E 008°32'0 0.0
2014-Jul-27 21:31N 53°35' E 008°32'0 0.0
2014-Jul-27 20:31N 53°35' E 008°32'0 0.0
2014-Jul-27 19:28N 53°35' E 008°32'0 0.0
2014-Jul-27 18:31N 53°35' E 008°32'0 0.0
2014-Jul-27 17:31N 53°35' E 008°32'0 0.0
2014-Jul-27 16:28N 53°35' E 008°32'0 0.0
2014-Jul-27 15:31N 53°35' E 008°32'0 0.0
2014-Jul-27 14:31N 53°35' E 008°32'0 0.0
2014-Jul-27 13:31N 53°35' E 008°32'0 0.0
2014-Jul-27 12:31N 53°35' E 008°32'0 0.0
2014-Jul-27 11:31N 53°35' E 008°32'0 0.0
2014-Jul-27 10:33N 53°35' E 008°32'0 0.0
2014-Jul-27 09:31N 53°35' E 008°32'0 0.0
2014-Jul-27 08:31N 53°35' E 008°32'0 0.0
2014-Jul-27 07:31N 53°35' E 008°32'0 0.0
2014-Jul-27 06:31N 53°35' E 008°32'0 0.0
2014-Jul-27 05:31N 53°35' E 008°32'0 0.0
2014-Jul-27 04:31N 53°35' E 008°32'0 0.0
2014-Jul-27 03:31N 53°35' E 008°32'0 0.0
2014-Jul-27 02:31N 53°35' E 008°32'0 0.0
2014-Jul-27 01:31N 53°35' E 008°32'0 0.0
2014-Jul-27 00:33N 53°35' E 008°32'0 0.0
2014-Jul-26 23:30N 53°35' E 008°32'0 0.0
2014-Jul-26 22:33N 53°35' E 008°32'0 0.0
2014-Jul-26 21:33N 53°35' E 008°32'0 0.0
2014-Jul-26 20:33N 53°35' E 008°32'0 0.0
2014-Jul-26 19:33N 53°35' E 008°32'0 0.0
2014-Jul-26 18:33N 53°35' E 008°32'0 0.0
2014-Jul-26 17:33N 53°35' E 008°32'0 0.0
2014-Jul-26 16:33N 53°35' E 008°32'0 0.1
2014-Jul-26 15:33N 53°35' E 008°32'0 0.1
2014-Jul-26 14:33N 53°35' E 008°32'0 0.0
2014-Jul-26 13:33N 53°35' E 008°32'7 6.6
2014-Jul-26 12:33N 53°39' E 008°23'1414.4
2014-Jul-26 11:34N 53°49' E 008°06'1212.3
2014-Jul-26 10:34N 53°53' E 007°46'2 1.4
2014-Jul-26 09:08N 53°55' E 007°47'0 0.0
2014-Jul-26 08:32N 53°55' E 007°47'0 0.0
2014-Jul-26 07:32N 53°55' E 007°47'0 0.1
2014-Jul-26 06:32N 53°54' E 007°47'0 0.2
2014-Jul-26 05:32N 53°55' E 007°47'0 0.0
2014-Jul-26 04:32N 53°55' E 007°47'0 0.0
2014-Jul-26 03:32N 53°55' E 007°47'0 0.0
2014-Jul-26 02:32N 53°55' E 007°47'0 0.0
2014-Jul-26 01:32N 53°55' E 007°47'0 0.0
2014-Jul-26 00:32N 53°55' E 007°47'0 0.1
2014-Jul-25 23:32N 53°55' E 007°47'0 0.2
2014-Jul-25 22:32N 53°54' E 007°47'3 3.5
2014-Jul-25 21:33N 53°53' E 007°42'1616.3
2014-Jul-25 20:33N 53°52' E 007°14'2020.5
2014-Jul-25 19:33N 53°48' E 006°40'2020.0
2014-Jul-25 18:33N 53°43' E 006°08'2019.9
2014-Jul-25 17:33N 53°37' E 005°36'2019.7
2014-Jul-25 16:33N 53°31' E 005°04'1919.2
2014-Jul-25 15:33N 53°20' E 004°37'2020.4
2014-Jul-25 14:33N 53°03' E 004°21'1919.4
2014-Jul-25 13:33N 52°46' E 004°05'1919.5
2014-Jul-25 12:33N 52°31' E 003°43'1627.5
2014-Jul-25 12:00N 52°18' E 003°30'512.2 090 / 61015.8 5.4 0.523.016.520.3
2014-Jul-25 11:33N 52°16' E 003°22'1818.3
2014-Jul-25 10:33N 52°01' E 003°05'1816.9
2014-Jul-25 09:31N 51°44' E 003°13'1010.1
2014-Jul-25 08:33N 51°35' E 003°09'1110.8
2014-Jul-25 07:33N 51°24' E 003°07'1817.8
2014-Jul-25 06:33N 51°25' E 003°35'1312.9
2014-Jul-25 05:33N 51°22' E 003°55'1010.4
2014-Jul-25 04:34N 51°24' E 004°11'5 4.8
2014-Jul-25 03:33N 51°20' E 004°17'0 0.0
2014-Jul-25 02:33N 51°20' E 004°17'0 0.0
2014-Jul-25 01:33N 51°20' E 004°17'0 0.0
2014-Jul-25 00:34N 51°20' E 004°17'0 0.0
2014-Jul-24 23:34N 51°20' E 004°17'0 0.0
2014-Jul-24 22:33N 51°20' E 004°16'0 0.0
2014-Jul-24 21:33N 51°20' E 004°17'0 0.0
2014-Jul-24 20:34N 51°20' E 004°17'0 0.0
2014-Jul-24 19:33N 51°20' E 004°17'0 0.0
2014-Jul-24 18:34N 51°20' E 004°17'0 0.0
2014-Jul-24 17:34N 51°20' E 004°17'0 0.0
2014-Jul-24 16:33N 51°20' E 004°17'0 0.0
2014-Jul-24 15:33N 51°20' E 004°17'0 0.0
2014-Jul-24 14:33N 51°20' E 004°17'0 0.0
2014-Jul-24 13:34N 51°20' E 004°17'0 0.0
2014-Jul-24 12:33N 51°20' E 004°17'0 0.0
2014-Jul-24 11:33N 51°20' E 004°17'0 0.0
2014-Jul-24 10:33N 51°20' E 004°17'0 0.0
2014-Jul-24 09:34N 51°20' E 004°17'0 0.0
2014-Jul-24 08:33N 51°20' E 004°17'0 0.0
2014-Jul-24 07:33N 51°20' E 004°17'0 0.0
2014-Jul-24 06:33N 51°20' E 004°17'0 0.0
2014-Jul-24 05:33N 51°20' E 004°17'0 0.0
2014-Jul-24 04:33N 51°20' E 004°17'0 0.0
2014-Jul-24 03:33N 51°20' E 004°17'0 0.0
2014-Jul-24 02:34N 51°20' E 004°17'0 0.0
2014-Jul-24 01:33N 51°20' E 004°17'0 0.0
2014-Jul-24 00:34N 51°20' E 004°17'0 0.0
2014-Jul-23 23:33N 51°20' E 004°17'0 0.0
2014-Jul-23 22:33N 51°20' E 004°17'0 0.0
2014-Jul-23 21:33N 51°20' E 004°17'0 0.0
2014-Jul-23 20:33N 51°20' E 004°17'0 0.0
2014-Jul-23 19:33N 51°20' E 004°17'0 0.0
2014-Jul-23 18:34N 51°20' E 004°16'7 6.8
2014-Jul-23 17:33N 51°22' E 004°06'7 6.8
2014-Jul-23 16:33N 51°22' E 003°55'9 9.2
2014-Jul-23 15:33N 51°26' E 003°42'8 7.9
2014-Jul-23 14:34N 51°25' E 003°29'1212.0
2014-Jul-23 13:33N 51°24' E 003°10'1312.7
2014-Jul-23 12:34N 51°22' E 002°50'10 9.6
2014-Jul-23 11:33N 51°22' E 002°34'8 7.6
2014-Jul-23 10:34N 51°20' E 002°23'7 7.2
2014-Jul-23 09:34N 51°16' E 002°13'8 8.3
2014-Jul-23 08:34N 51°12' E 002°01'813.5
2014-Jul-23 08:00N 51°06' E 001°54'613.1 290 / 91018.210.8 0.520.018.419.5
2014-Jul-23 07:33N 51°06' E 001°45'1526.3
2014-Jul-23 07:00N 50°54' E 001°30'711.7 030 / 101018.1 5.4 0.520.017.119.5
2014-Jul-23 06:23N 50°47' E 001°26'719.0
2014-Jul-23 06:00N 50°42' E 001°18'916.9 080 / 111018.1 2.2 0.519.017.419.5
2014-Jul-23 05:29N 50°36' E 001°08'3120.5
2014-Jul-23 04:00N 50°24' E 000°24'4817.1 030 / 161019.110.8 0.518.016.318.9
2014-Jul-23 01:11N 50°13' W 000°49'1117.6
2014-Jul-23 00:33N 50°10' W 001°06'915.3
2014-Jul-23 00:00N 50°06' W 001°18'920.5 160 / 91021.610.8 0.519.014.718.8
2014-Jul-22 23:33N 50°06' W 001°32'2216.6
2014-Jul-22 22:14N 49°60' W 002°05'10518.4
2014-Jul-22 16:30N 49°26' W 004°39'3819.4
2014-Jul-22 14:31N 49°14' W 005°35'3120.5
2014-Jul-22 13:00N 49°00' W 006°18'37 9.4 170 / 51023.510.8 0.520.518.921.6
2014-Jul-22 09:00N 48°48' W 007°12'17 4.2 240 / 11023.110.8 20.115.820.8
2014-Jul-22 05:00N 48°42' W 007°36'24220.1 180 / 101018.810.8 0.522.515.020.4
2014-Jul-21 17:00N 47°24' W 013°18'7919.8 250 / 171020.5 0.0 0.522.018.920.5
2014-Jul-21 13:00N 46°54' W 015°06'4321.4 190 / 111020.210.8 1.523.518.020.7
2014-Jul-21 11:00N 46°42' W 016°06'5718.9 200 / 161019.610.8 2.021.517.520.5
2014-Jul-21 08:00N 46°24' W 017°24'   220 / 101018.110.8 0.519.816.520.0
Track history (hours):
 
Tides and Currents Weather Stations Pressure Air Temp Water Temp Dewpoint Dewpoint Depression Visibility Wind Speed Wind Dir Waves Ship Positions

St. Louis Express

More information available from US FCC via Universal Licensing System.

Last reported at 2014-Jul-31 06:00 UTC. Time now 2014-Jul-31 09:31 UTC.
Position N 47°12' W 014°36'.

Type: Ship (hazmat cat D). MMSI: 367136680.

Wind from 300 at 14 knots

Waves 0.5 meters (2 feet), 6 second period

Barometer 1020.0 mb
Air temperature 19.0 ° C
Visibility: greater than 10.8 NM
Dewpoint 15.7 ° C
Water temperature 21.4 ° C

Date/timePositionNaut miles runAvg speedWind from/ knotsBaromVisibWave heightAir tempDewpointWater temp
2014-Jul-31 06:00N 47°12' W 014°36'7719.2 300 / 141020.010.8 0.519.015.721.4
2014-Jul-31 02:00N 47°36' W 012°48'36319.1 310 / 101020.910.8 2.018.012.720.7
2014-Jul-30 07:00N 49°42' W 004°12'3317.8 050 / 81018.310.8 0.518.515.120.2
2014-Jul-30 05:07N 49°55' W 003°24'1519.7
2014-Jul-30 04:22N 49°57' W 003°02'4021.6
2014-Jul-30 02:32N 50°13' W 002°05'2121.3
2014-Jul-30 01:33N 50°21' W 001°35'2019.8
2014-Jul-30 00:33N 50°29' W 001°07'1414.1
2014-Jul-29 23:33N 50°43' W 001°00'1212.3
2014-Jul-29 22:33N 50°49' W 001°17'8 8.4
2014-Jul-29 21:33N 50°54' W 001°27'0 0.1
2014-Jul-29 20:30N 50°54' W 001°27'0 0.0
2014-Jul-29 19:29N 50°54' W 001°27'0 0.0
2014-Jul-29 18:32N 50°54' W 001°27'0 0.0
2014-Jul-29 17:32N 50°54' W 001°27'0 0.0
2014-Jul-29 16:32N 50°54' W 001°27'0 0.0
2014-Jul-29 15:32N 50°54' W 001°27'0 0.0
2014-Jul-29 14:32N 50°54' W 001°27'0 0.0
2014-Jul-29 13:32N 50°54' W 001°27'0 0.0
2014-Jul-29 12:29N 50°54' W 001°27'0 0.0
2014-Jul-29 11:29N 50°54' W 001°27'0 0.0
2014-Jul-29 10:32N 50°54' W 001°27'0 0.0
2014-Jul-29 09:32N 50°54' W 001°27'0 0.0
2014-Jul-29 08:32N 50°54' W 001°27'0 0.0
2014-Jul-29 07:33N 50°54' W 001°27'3 3.1
2014-Jul-29 06:34N 50°53' W 001°23'9 8.6
2014-Jul-29 05:34N 50°46' W 001°14'1413.6
2014-Jul-29 04:33N 50°38' W 000°56'5 4.5
2014-Jul-29 03:33N 50°36' W 000°51'1818.3
2014-Jul-29 02:34N 50°35' W 000°22'1918.8
2014-Jul-29 01:34N 50°32' E 000°07'712.5
2014-Jul-29 01:00N 50°30' E 000°18'1330.2 350 / 281014.0 5.4 4.017.014.418.9
2014-Jul-29 00:33N 50°37' E 000°36'1817.9
2014-Jul-28 23:33N 50°48' E 000°58'1818.1
2014-Jul-28 22:33N 50°58' E 001°22'2120.8
2014-Jul-28 21:33N 51°13' E 001°45'2221.5
2014-Jul-28 20:33N 51°31' E 002°02'4718.4
2014-Jul-28 18:00N 52°06' E 002°54'9719.5 050 / 191015.0 5.4 0.521.017.820.0
2014-Jul-28 13:00N 53°24' E 004°30'920.0 040 / 161015.510.8 2.022.518.621.4
2014-Jul-28 12:32N 53°29' E 004°43'1018.7
2014-Jul-28 12:00N 53°30' E 005°00'1024.0 060 / 161015.510.8 2.022.516.824.8
2014-Jul-28 11:33N 53°36' E 005°14'382675.6
2014-Jul-28 11:00N 53°36' W 005°30'400919.9 050 / 91015.310.8 2.023.016.521.4
2014-Jul-28 10:33N 53°43' E 005°44'1818.3
2014-Jul-28 09:33N 53°49' E 006°14'4517.6
2014-Jul-28 07:00N 53°54' E 007°30'817.8 150 / 51016.010.8 0.522.017.221.8
2014-Jul-28 06:33N 53°57' E 007°42'1514.6
2014-Jul-28 05:33N 53°50' E 008°04'1616.5
2014-Jul-28 04:33N 53°39' E 008°25'6 5.3
2014-Jul-28 03:31N 53°35' E 008°32'0 0.0
2014-Jul-28 02:31N 53°35' E 008°32'0 0.0
2014-Jul-28 01:31N 53°35' E 008°32'0 0.0
2014-Jul-28 00:31N 53°35' E 008°32'0 0.0
2014-Jul-27 23:31N 53°35' E 008°32'0 0.0
2014-Jul-27 22:31N 53°35' E 008°32'0 0.0
2014-Jul-27 21:31N 53°35' E 008°32'0 0.0
2014-Jul-27 20:31N 53°35' E 008°32'0 0.0
2014-Jul-27 19:28N 53°35' E 008°32'0 0.0
2014-Jul-27 18:31N 53°35' E 008°32'0 0.0
2014-Jul-27 17:31N 53°35' E 008°32'0 0.0
2014-Jul-27 16:28N 53°35' E 008°32'0 0.0
2014-Jul-27 15:31N 53°35' E 008°32'0 0.0
2014-Jul-27 14:31N 53°35' E 008°32'0 0.0
2014-Jul-27 13:31N 53°35' E 008°32'0 0.0
2014-Jul-27 12:31N 53°35' E 008°32'0 0.0
2014-Jul-27 11:31N 53°35' E 008°32'0 0.0
2014-Jul-27 10:33N 53°35' E 008°32'0 0.0
2014-Jul-27 09:31N 53°35' E 008°32'0 0.0
2014-Jul-27 08:31N 53°35' E 008°32'0 0.0
2014-Jul-27 07:31N 53°35' E 008°32'0 0.0
2014-Jul-27 06:31N 53°35' E 008°32'0 0.0
2014-Jul-27 05:31N 53°35' E 008°32'0 0.0
2014-Jul-27 04:31N 53°35' E 008°32'0 0.0
2014-Jul-27 03:31N 53°35' E 008°32'0 0.0
2014-Jul-27 02:31N 53°35' E 008°32'0 0.0
2014-Jul-27 01:31N 53°35' E 008°32'0 0.0
2014-Jul-27 00:33N 53°35' E 008°32'0 0.0
2014-Jul-26 23:30N 53°35' E 008°32'0 0.0
2014-Jul-26 22:33N 53°35' E 008°32'0 0.0
2014-Jul-26 21:33N 53°35' E 008°32'0 0.0
2014-Jul-26 20:33N 53°35' E 008°32'0 0.0
2014-Jul-26 19:33N 53°35' E 008°32'0 0.0
2014-Jul-26 18:33N 53°35' E 008°32'0 0.0
2014-Jul-26 17:33N 53°35' E 008°32'0 0.0
2014-Jul-26 16:33N 53°35' E 008°32'0 0.1
2014-Jul-26 15:33N 53°35' E 008°32'0 0.1
2014-Jul-26 14:33N 53°35' E 008°32'0 0.0
2014-Jul-26 13:33N 53°35' E 008°32'7 6.6
2014-Jul-26 12:33N 53°39' E 008°23'1414.4
2014-Jul-26 11:34N 53°49' E 008°06'1212.3
2014-Jul-26 10:34N 53°53' E 007°46'2 1.4
2014-Jul-26 09:08N 53°55' E 007°47'0 0.0
2014-Jul-26 08:32N 53°55' E 007°47'0 0.0
2014-Jul-26 07:32N 53°55' E 007°47'0 0.1
2014-Jul-26 06:32N 53°54' E 007°47'0 0.2
2014-Jul-26 05:32N 53°55' E 007°47'0 0.0
2014-Jul-26 04:32N 53°55' E 007°47'0 0.0
2014-Jul-26 03:32N 53°55' E 007°47'0 0.0
2014-Jul-26 02:32N 53°55' E 007°47'0 0.0
2014-Jul-26 01:32N 53°55' E 007°47'0 0.0
2014-Jul-26 00:32N 53°55' E 007°47'0 0.1
2014-Jul-25 23:32N 53°55' E 007°47'0 0.2
2014-Jul-25 22:32N 53°54' E 007°47'3 3.5
2014-Jul-25 21:33N 53°53' E 007°42'1616.3
2014-Jul-25 20:33N 53°52' E 007°14'2020.5
2014-Jul-25 19:33N 53°48' E 006°40'2020.0
2014-Jul-25 18:33N 53°43' E 006°08'2019.9
2014-Jul-25 17:33N 53°37' E 005°36'2019.7
2014-Jul-25 16:33N 53°31' E 005°04'1919.2
2014-Jul-25 15:33N 53°20' E 004°37'2020.4
2014-Jul-25 14:33N 53°03' E 004°21'1919.4
2014-Jul-25 13:33N 52°46' E 004°05'1919.5
2014-Jul-25 12:33N 52°31' E 003°43'1627.5
2014-Jul-25 12:00N 52°18' E 003°30'512.2 090 / 61015.8 5.4 0.523.016.520.3
2014-Jul-25 11:33N 52°16' E 003°22'1818.3
2014-Jul-25 10:33N 52°01' E 003°05'1816.9
2014-Jul-25 09:31N 51°44' E 003°13'1010.1
2014-Jul-25 08:33N 51°35' E 003°09'1110.8
2014-Jul-25 07:33N 51°24' E 003°07'1817.8
2014-Jul-25 06:33N 51°25' E 003°35'1312.9
2014-Jul-25 05:33N 51°22' E 003°55'1010.4
2014-Jul-25 04:34N 51°24' E 004°11'5 4.8
2014-Jul-25 03:33N 51°20' E 004°17'0 0.0
2014-Jul-25 02:33N 51°20' E 004°17'0 0.0
2014-Jul-25 01:33N 51°20' E 004°17'0 0.0
2014-Jul-25 00:34N 51°20' E 004°17'0 0.0
2014-Jul-24 23:34N 51°20' E 004°17'0 0.0
2014-Jul-24 22:33N 51°20' E 004°16'0 0.0
2014-Jul-24 21:33N 51°20' E 004°17'0 0.0
2014-Jul-24 20:34N 51°20' E 004°17'0 0.0
2014-Jul-24 19:33N 51°20' E 004°17'0 0.0
2014-Jul-24 18:34N 51°20' E 004°17'0 0.0
2014-Jul-24 17:34N 51°20' E 004°17'0 0.0
2014-Jul-24 16:33N 51°20' E 004°17'0 0.0
2014-Jul-24 15:33N 51°20' E 004°17'0 0.0
2014-Jul-24 14:33N 51°20' E 004°17'0 0.0
2014-Jul-24 13:34N 51°20' E 004°17'0 0.0
2014-Jul-24 12:33N 51°20' E 004°17'0 0.0
2014-Jul-24 11:33N 51°20' E 004°17'0 0.0
2014-Jul-24 10:33N 51°20' E 004°17'0 0.0
2014-Jul-24 09:34N 51°20' E 004°17'0 0.0
2014-Jul-24 08:33N 51°20' E 004°17'0 0.0
2014-Jul-24 07:33N 51°20' E 004°17'0 0.0
2014-Jul-24 06:33N 51°20' E 004°17'0 0.0
2014-Jul-24 05:33N 51°20' E 004°17'0 0.0
2014-Jul-24 04:33N 51°20' E 004°17'0 0.0
2014-Jul-24 03:33N 51°20' E 004°17'0 0.0
2014-Jul-24 02:34N 51°20' E 004°17'0 0.0
2014-Jul-24 01:33N 51°20' E 004°17'0 0.0
2014-Jul-24 00:34N 51°20' E 004°17'0 0.0
2014-Jul-23 23:33N 51°20' E 004°17'0 0.0
2014-Jul-23 22:33N 51°20' E 004°17'0 0.0
2014-Jul-23 21:33N 51°20' E 004°17'0 0.0
2014-Jul-23 20:33N 51°20' E 004°17'0 0.0
2014-Jul-23 19:33N 51°20' E 004°17'0 0.0
2014-Jul-23 18:34N 51°20' E 004°16'7 6.8
2014-Jul-23 17:33N 51°22' E 004°06'7 6.8
2014-Jul-23 16:33N 51°22' E 003°55'9 9.2
2014-Jul-23 15:33N 51°26' E 003°42'8 7.9
2014-Jul-23 14:34N 51°25' E 003°29'1212.0
2014-Jul-23 13:33N 51°24' E 003°10'1312.7
2014-Jul-23 12:34N 51°22' E 002°50'10 9.6
2014-Jul-23 11:33N 51°22' E 002°34'8 7.6
2014-Jul-23 10:34N 51°20' E 002°23'7 7.2
2014-Jul-23 09:34N 51°16' E 002°13'8 8.3
2014-Jul-23 08:34N 51°12' E 002°01'813.5
2014-Jul-23 08:00N 51°06' E 001°54'613.1 290 / 91018.210.8 0.520.018.419.5
2014-Jul-23 07:33N 51°06' E 001°45'1526.3
2014-Jul-23 07:00N 50°54' E 001°30'711.7 030 / 101018.1 5.4 0.520.017.119.5
2014-Jul-23 06:23N 50°47' E 001°26'719.0
2014-Jul-23 06:00N 50°42' E 001°18'916.9 080 / 111018.1 2.2 0.519.017.419.5
2014-Jul-23 05:29N 50°36' E 001°08'3120.5
2014-Jul-23 04:00N 50°24' E 000°24'4817.1 030 / 161019.110.8 0.518.016.318.9
2014-Jul-23 01:11N 50°13' W 000°49'1117.6
2014-Jul-23 00:33N 50°10' W 001°06'915.3
2014-Jul-23 00:00N 50°06' W 001°18'920.5 160 / 91021.610.8 0.519.014.718.8
2014-Jul-22 23:33N 50°06' W 001°32'2216.6
2014-Jul-22 22:14N 49°60' W 002°05'10518.4
2014-Jul-22 16:30N 49°26' W 004°39'3819.4
2014-Jul-22 14:31N 49°14' W 005°35'3120.5
2014-Jul-22 13:00N 49°00' W 006°18'37 9.4 170 / 51023.510.8 0.520.518.921.6
2014-Jul-22 09:00N 48°48' W 007°12'17 4.2 240 / 11023.110.8 20.115.820.8
2014-Jul-22 05:00N 48°42' W 007°36'24220.1 180 / 101018.810.8 0.522.515.020.4
2014-Jul-21 17:00N 47°24' W 013°18'7919.8 250 / 171020.5 0.0 0.522.018.920.5
2014-Jul-21 13:00N 46°54' W 015°06'4321.4 190 / 111020.210.8 1.523.518.020.7
2014-Jul-21 11:00N 46°42' W 016°06'5718.9 200 / 161019.610.8 2.021.517.520.5
2014-Jul-21 08:00N 46°24' W 017°24'   220 / 101018.110.8 0.519.816.520.0

Dump ship's entire track history